createdAt,value
2018-10-18T00:06:08.754Z,0.01
2018-10-18T00:16:08.679Z,0.00
2018-10-18T00:26:08.949Z,0.00
2018-10-18T00:36:08.664Z,0.00
2018-10-18T00:46:08.721Z,0.01
2018-10-18T00:56:09.308Z,0.00
2018-10-18T01:06:08.749Z,0.00
2018-10-18T01:16:08.686Z,0.01
2018-10-18T01:26:08.616Z,0.00
2018-10-18T01:36:08.939Z,0.00
2018-10-18T01:46:08.633Z,0.01
2018-10-18T01:56:08.653Z,0.03
2018-10-18T02:06:08.669Z,0.02
2018-10-18T02:16:08.697Z,0.00
2018-10-18T02:26:08.661Z,0.02
2018-10-18T02:36:08.748Z,0.00
2018-10-18T02:46:08.752Z,0.00
2018-10-18T02:56:08.888Z,0.02
2018-10-18T03:06:08.629Z,0.02
2018-10-18T03:16:09.470Z,0.13
2018-10-18T03:26:09.010Z,0.01
2018-10-18T03:36:08.716Z,0.00
2018-10-18T03:46:08.999Z,0.00
2018-10-18T03:56:09.573Z,0.00
2018-10-18T04:06:08.835Z,0.00
2018-10-18T04:16:08.526Z,0.02
2018-10-18T04:26:08.636Z,0.03
2018-10-18T04:36:08.791Z,0.05
2018-10-18T04:46:08.685Z,0.03
2018-10-18T04:56:08.688Z,0.02
2018-10-18T05:06:08.866Z,0.00
2018-10-18T05:16:08.635Z,0.04
2018-10-18T05:26:08.642Z,0.04
2018-10-18T05:36:08.711Z,0.10
2018-10-18T05:46:08.703Z,0.02
2018-10-18T05:56:08.676Z,0.01
2018-10-18T06:06:08.717Z,0.15
2018-10-18T06:16:09.554Z,0.08
2018-10-18T06:26:08.642Z,0.09
2018-10-18T06:36:08.646Z,0.03
2018-10-18T06:46:08.707Z,0.01
2018-10-18T06:56:08.909Z,0.06
2018-10-18T07:06:08.854Z,0.04
2018-10-18T07:16:08.781Z,0.14
2018-10-18T07:26:08.844Z,0.32
2018-10-18T07:36:09.416Z,0.39
2018-10-18T07:46:08.784Z,0.12
2018-10-18T07:56:08.634Z,0.20
2018-10-18T08:06:09.419Z,0.20
2018-10-18T08:16:09.716Z,0.23
2018-10-18T08:26:08.695Z,0.29
2018-10-18T08:36:08.708Z,0.37
2018-10-18T08:46:08.706Z,0.44
2018-10-18T08:56:08.702Z,0.28
2018-10-18T09:06:08.694Z,0.37
2018-10-18T09:16:09.171Z,0.25
2018-10-18T09:26:08.709Z,0.51
2018-10-18T09:36:08.875Z,0.32
2018-10-18T09:46:08.657Z,0.52
2018-10-18T09:56:08.769Z,0.40
2018-10-18T10:06:08.656Z,0.55
2018-10-18T10:16:09.256Z,0.23
2018-10-18T10:26:09.154Z,0.52
2018-10-18T10:36:08.906Z,0.18
2018-10-18T10:46:08.791Z,0.51
2018-10-18T10:56:08.814Z,0.67
2018-10-18T11:06:08.792Z,0.37
2018-10-18T11:16:08.810Z,0.27
2018-10-18T11:26:08.829Z,0.85
2018-10-18T11:36:08.667Z,0.38
2018-10-18T11:46:09.533Z,0.38
2018-10-18T11:56:08.771Z,0.90
2018-10-18T12:06:09.405Z,0.62
2018-10-18T12:16:08.775Z,0.50
2018-10-18T12:26:08.891Z,0.76
2018-10-18T12:36:08.700Z,0.57
2018-10-18T12:46:08.823Z,0.75
2018-10-18T12:56:08.736Z,0.97
2018-10-18T13:06:08.911Z,0.50
2018-10-18T13:16:09.812Z,1.03
2018-10-18T13:26:08.864Z,1.26
2018-10-18T13:36:08.856Z,0.80
2018-10-18T13:46:09.055Z,0.63
2018-10-18T13:56:08.923Z,0.90
2018-10-18T14:06:09.703Z,0.72
2018-10-18T14:16:08.720Z,0.70
2018-10-18T14:26:08.894Z,0.70
2018-10-18T14:36:08.649Z,0.35
2018-10-18T14:46:08.894Z,0.85
2018-10-18T14:56:09.770Z,0.55
2018-10-18T15:06:09.344Z,0.74
2018-10-18T15:16:08.735Z,0.78
2018-10-18T15:26:09.010Z,0.51
2018-10-18T15:36:08.743Z,0.35
2018-10-18T15:46:08.975Z,0.46
2018-10-18T15:56:08.768Z,0.51
2018-10-18T16:06:08.823Z,0.73
2018-10-18T16:16:10.487Z,0.39
2018-10-18T16:26:08.870Z,0.20
2018-10-18T16:36:08.715Z,0.47
2018-10-18T16:46:08.784Z,0.50
2018-10-18T16:56:08.736Z,0.20
2018-10-18T17:06:09.002Z,0.38
2018-10-18T17:16:08.817Z,0.25
2018-10-18T17:26:08.844Z,0.49
2018-10-18T17:36:08.806Z,0.47
2018-10-18T17:46:08.787Z,0.42
2018-10-18T17:56:08.779Z,0.28
2018-10-18T18:06:08.987Z,0.21
2018-10-18T18:16:08.792Z,0.15
2018-10-18T18:26:08.765Z,0.03
2018-10-18T18:36:09.337Z,0.12
2018-10-18T18:46:08.733Z,0.19
2018-10-18T18:56:12.484Z,0.06
2018-10-18T19:06:08.850Z,0.14
2018-10-18T19:16:08.966Z,0.16
2018-10-18T19:26:08.873Z,0.16
2018-10-18T19:36:08.744Z,0.16
2018-10-18T19:46:08.826Z,0.31
2018-10-18T19:56:08.807Z,0.50
2018-10-18T20:06:08.759Z,0.39
2018-10-18T20:16:08.747Z,0.86
2018-10-18T20:26:09.098Z,1.00
2018-10-18T20:36:08.903Z,0.93
2018-10-18T20:46:08.879Z,0.69
2018-10-18T20:56:08.878Z,1.47
2018-10-18T21:06:09.935Z,1.24
2018-10-18T21:16:08.786Z,1.53
2018-10-18T21:26:08.778Z,1.08
2018-10-18T21:36:09.231Z,1.72
2018-10-18T21:46:08.763Z,1.37
2018-10-18T21:56:08.767Z,1.57
2018-10-18T22:06:08.787Z,1.02
2018-10-18T22:16:08.795Z,1.52
2018-10-18T22:26:10.300Z,1.48
2018-10-18T22:36:08.786Z,0.91
2018-10-18T22:46:08.810Z,1.01
2018-10-18T22:56:08.795Z,0.86
2018-10-18T23:06:08.926Z,0.65
2018-10-18T23:16:10.235Z,0.48
2018-10-18T23:26:08.844Z,0.50
2018-10-18T23:36:08.844Z,0.46
2018-10-18T23:46:09.811Z,0.43
2018-10-18T23:56:08.770Z,0.65
